aviador You're here:

LFOJ Decoded Metar

ORLEANS in FRANCE
Report Time2017-09-25 16:30:00
UTC Time2017-09-25 16:57:07
Flight Rules vfr VFR
Wind250° at 06 kt
W.Decomp.*RWY 25: 6.0 kt HW 0.1 kt RCW
W.Rank250° ranks 6
Current wind is below 250° avg. (9.4)
Visibility9999 m
Phenomena:Light Shower Rain
Clouds:Few 032 Hf
Overcast 100 Hf
Expected CloudBase > 2,400 ft AGL from Temp-Dew spread
Ceiling10,000 ft
Temp20°C (ISA +6)
Dew Point14°C (69% RH)
AAT19.1°C
QNH1018 hPa
Density Alt1,135 ft
Elevation410 ft
Report Wrong Elevation
Raw Report
LFOJ 251630Z AUTO 25006KT 9999 FEW032 OVC100 20/14 Q1018 TEMPO
4000 -SHRA BKN030TCU=

Extra information for LFOJ:More info

Metar Taf Metar & Taf Last 4 Metars F.Rules Stats Wind Profile Meteogram Temp Stats Airport Information Weather charts Add Link Nearby VenuesMetar ALERT Operation Metar Decoded Social comments